Time;durP1;ratioP1;P1;durP2;ratioP2;P2;SDS_P1;SDS_P2;PMS_P1;PMS_P2;Temp;Humidity;BMP_temperature;BMP_pressure;BME280_temperature;BME280_humidity;BME280_pressure;Samples;Min_cycle;Max_cycle;Signal;HPM_P1;HPM_P2
2022/11/03 00:01:37;;;;;;;11.70;5.87;;;18.80;74.30;;;;;;6151821;23;20183;-82
2022/11/03 00:04:06;;;;;;;15.60;6.70;;;18.80;74.20;;;;;;6149927;23;20187;-80
2022/11/03 00:06:34;;;;;;;16.73;7.03;;;18.80;74.10;;;;;;6149950;23;20657;-81
2022/11/03 00:09:05;;;;;;;18.93;7.57;;;18.80;74.20;;;;;;6153122;23;20176;-80
2022/11/03 00:11:34;;;;;;;15.50;7.57;;;18.80;74.10;;;;;;6151191;23;20524;-81
2022/11/03 00:14:03;;;;;;;19.23;8.10;;;18.70;74.30;;;;;;6149989;23;20176;-82
2022/11/03 00:16:32;;;;;;;15.70;6.90;;;18.70;74.40;;;;;;6152953;23;20246;-80
2022/11/03 00:19:02;;;;;;;12.27;7.07;;;18.70;74.40;;;;;;6153979;23;20282;-80
2022/11/03 00:21:30;;;;;;;17.50;6.67;;;18.70;74.30;;;;;;6151227;23;20176;-79
2022/11/03 00:24:01;;;;;;;16.83;7.27;;;18.70;74.70;;;;;;6151277;23;20172;-79
2022/11/03 00:26:30;;;;;;;17.07;7.00;;;18.70;74.90;;;;;;6150741;23;20161;-80
2022/11/03 00:29:00;;;;;;;12.23;7.00;;;18.60;74.90;;;;;;6150871;23;20200;-81
2022/11/03 00:31:30;;;;;;;13.30;6.77;;;18.60;74.60;;;;;;6151861;23;20176;-81
2022/11/03 00:34:00;;;;;;;12.37;7.50;;;18.60;74.70;;;;;;6148136;23;20161;-80
2022/11/03 00:36:31;;;;;;;17.43;7.10;;;18.60;74.70;;;;;;6151458;23;20172;-79
2022/11/03 00:39:00;;;;;;;12.13;6.27;;;18.60;74.70;;;;;;6152888;23;20185;-80
2022/11/03 00:41:58;;;;;;;17.07;7.03;;;18.60;74.70;;;;;;6151751;23;20621;-81
2022/11/03 00:44:27;;;;;;;16.40;7.37;;;18.50;75.00;;;;;;6150733;23;20716;-79
2022/11/03 00:46:56;;;;;;;14.00;6.60;;;18.50;74.80;;;;;;6148527;23;20626;-80
2022/11/03 00:49:24;;;;;;;15.30;6.93;;;18.60;74.70;;;;;;6154024;23;20169;-80
2022/11/03 00:51:54;;;;;;;13.97;6.70;;;18.50;74.80;;;;;;6152226;23;20710;-81
2022/11/03 00:54:22;;;;;;;16.27;7.67;;;18.50;74.70;;;;;;6154624;23;20220;-80
2022/11/03 00:56:50;;;;;;;16.37;7.13;;;18.50;74.70;;;;;;6147921;23;20175;-80
2022/11/03 01:02:50;;;;;;;13.10;6.77;;;18.50;74.60;;;;;;6151768;23;20164;-80
2022/11/03 01:08:06;;;;;;;15.47;7.80;;;18.50;74.50;;;;;;6151106;23;20161;-80
2022/11/03 01:11:42;;;;;;;13.47;7.10;;;18.50;74.50;;;;;;6154078;23;20491;-82
2022/11/03 01:13:26;;;;;;;14.43;7.90;;;18.50;74.50;;;;;;6152214;23;20227;-80
2022/11/03 01:15:58;;;;;;;13.60;6.90;;;18.50;74.40;;;;;;6150116;23;20516;-80
2022/11/03 01:18:26;;;;;;;17.60;7.73;;;18.50;74.30;;;;;;6151029;23;20219;-80
2022/11/03 01:20:55;;;;;;;16.87;7.37;;;18.50;74.30;;;;;;6152610;23;20173;-80
2022/11/03 01:23:25;;;;;;;15.30;7.80;;;18.50;74.20;;;;;;6150734;23;20169;-79
2022/11/03 01:25:53;;;;;;;15.63;7.33;;;18.50;74.30;;;;;;6147168;23;20301;-80
2022/11/03 01:28:22;;;;;;;17.03;7.17;;;18.50;74.30;;;;;;6147150;23;20196;-80
2022/11/03 01:30:50;;;;;;;16.30;7.90;;;18.50;74.30;;;;;;6146613;23;20266;-80
2022/11/03 01:33:18;;;;;;;17.73;7.53;;;18.40;74.30;;;;;;6151508;23;20688;-80
2022/11/03 01:35:46;;;;;;;18.03;7.70;;;18.40;74.40;;;;;;6152154;23;20172;-79
2022/11/03 01:38:15;;;;;;;15.47;8.07;;;18.40;74.30;;;;;;6151612;23;20173;-81
2022/11/03 01:40:44;;;;;;;17.73;7.77;;;18.40;74.30;;;;;;6150064;23;20196;-80
2022/11/03 01:43:16;;;;;;;17.07;7.73;;;18.40;74.40;;;;;;6150418;23;20177;-80
2022/11/03 01:45:47;;;;;;;13.47;6.77;;;18.40;74.40;;;;;;6149486;23;20176;-80
2022/11/03 01:48:18;;;;;;;17.13;7.67;;;18.40;74.60;;;;;;6150651;23;20172;-80
2022/11/03 01:50:48;;;;;;;19.33;8.70;;;18.30;74.50;;;;;;6151909;23;20203;-80
2022/11/03 01:53:18;;;;;;;19.17;7.53;;;18.30;74.60;;;;;;6152497;23;20172;-80
2022/11/03 01:55:50;;;;;;;14.53;7.67;;;18.30;74.60;;;;;;6151916;23;20180;-80
2022/11/03 01:58:22;;;;;;;15.93;7.33;;;18.30;74.70;;;;;;6149962;23;20164;-80
2022/11/03 02:00:53;;;;;;;14.93;7.07;;;18.30;74.70;;;;;;6147447;23;20215;-79
2022/11/03 02:03:23;;;;;;;13.77;7.57;;;18.30;74.70;;;;;;6148562;23;20165;-79
2022/11/03 02:05:52;;;;;;;25.50;8.57;;;18.30;75.00;;;;;;6150524;23;20700;-80
2022/11/03 02:08:24;;;;;;;14.37;7.73;;;18.20;75.00;;;;;;6150770;23;20227;-79
2022/11/03 02:10:54;;;;;;;16.20;7.33;;;18.20;75.20;;;;;;6151602;23;20160;-80
2022/11/03 02:13:25;;;;;;;18.00;8.07;;;18.20;75.20;;;;;;6152187;23;20550;-80
2022/11/03 02:15:57;;;;;;;17.00;7.53;;;18.10;75.50;;;;;;6150969;23;20606;-79
2022/11/03 02:18:29;;;;;;;14.37;7.20;;;18.10;75.50;;;;;;6150458;23;20160;-80
2022/11/03 02:21:11;;;;;;;17.10;7.77;;;18.10;75.50;;;;;;6149934;23;20267;-80
2022/11/03 02:23:43;;;;;;;15.90;7.77;;;18.10;75.50;;;;;;6150546;23;20188;-79
2022/11/03 02:26:15;;;;;;;22.13;8.10;;;18.10;75.60;;;;;;6151461;23;20224;-80
2022/11/03 02:28:43;;;;;;;17.57;7.50;;;18.10;75.50;;;;;;6146257;23;20578;-80
2022/11/03 02:31:16;;;;;;;17.97;7.90;;;18.00;75.50;;;;;;6147659;23;20271;-80
2022/11/03 02:33:51;;;;;;;19.43;6.93;;;18.00;75.70;;;;;;6151368;23;20165;-80
2022/11/03 02:36:24;;;;;;;19.53;7.63;;;18.00;75.60;;;;;;6149701;23;20321;-80
2022/11/03 02:38:57;;;;;;;15.90;8.40;;;18.00;75.80;;;;;;6151670;23;20161;-80
2022/11/03 02:41:29;;;;;;;16.03;7.60;;;18.00;75.80;;;;;;6151634;23;20227;-81
2022/11/03 02:43:58;;;;;;;17.17;7.53;;;18.00;75.90;;;;;;6149838;23;20168;-80
2022/11/03 02:46:27;;;;;;;17.80;8.30;;;18.00;75.80;;;;;;6146663;23;20172;-80
2022/11/03 02:48:56;;;;;;;15.80;7.90;;;18.00;75.80;;;;;;6150245;23;20173;-79
2022/11/03 02:51:25;;;;;;;16.87;8.60;;;18.00;76.10;;;;;;6152437;23;20180;-79
2022/11/03 02:54:02;;;;;;;16.73;7.63;;;18.00;75.90;;;;;;6149406;23;20173;-79
2022/11/03 02:56:35;;;;;;;15.20;7.83;;;18.00;76.00;;;;;;6149928;23;20160;-79
2022/11/03 02:59:08;;;;;;;16.97;7.97;;;18.00;75.90;;;;;;6152188;23;20156;-81
2022/11/03 03:01:46;;;;;;;17.77;9.37;;;18.00;76.10;;;;;;6150728;23;20231;-79
2022/11/03 03:04:22;;;;;;;17.57;8.53;;;17.90;76.10;;;;;;6150921;23;20523;-79
2022/11/03 03:06:55;;;;;;;16.23;7.73;;;17.90;76.20;;;;;;6150540;23;20160;-79
2022/11/03 03:09:28;;;;;;;20.30;8.70;;;17.90;76.20;;;;;;6151965;23;20160;-78
2022/11/03 03:12:00;;;;;;;17.53;8.40;;;17.90;76.40;;;;;;6151627;23;20638;-79
2022/11/03 03:14:33;;;;;;;17.00;8.20;;;17.90;76.30;;;;;;6150873;23;20164;-80
2022/11/03 03:17:05;;;;;;;15.83;8.23;;;17.90;76.40;;;;;;6148674;23;20610;-80
2022/11/03 03:19:47;;;;;;;17.47;7.47;;;17.90;76.40;;;;;;6151049;23;20496;-80
2022/11/03 03:22:24;;;;;;;15.63;7.40;;;17.90;76.60;;;;;;6151034;23;20223;-79
2022/11/03 03:24:57;;;;;;;14.60;7.90;;;17.90;76.60;;;;;;6149566;23;20492;-79
2022/11/03 03:27:31;;;;;;;18.77;8.60;;;17.80;76.40;;;;;;6149928;23;20538;-79
2022/11/03 03:30:03;;;;;;;16.83;8.23;;;17.80;76.50;;;;;;6149563;23;20176;-79
2022/11/03 03:32:36;;;;;;;17.90;8.50;;;17.80;76.40;;;;;;6147427;23;20279;-80
2022/11/03 03:35:08;;;;;;;16.87;8.03;;;17.80;76.40;;;;;;6150516;23;20168;-80
2022/11/03 03:37:39;;;;;;;16.87;8.77;;;17.80;76.50;;;;;;6150341;23;20215;-80
2022/11/03 03:40:12;;;;;;;21.00;8.27;;;17.80;76.40;;;;;;6152873;23;20321;-80
2022/11/03 03:42:45;;;;;;;15.73;7.77;;;17.80;76.40;;;;;;6151817;23;20681;-79
2022/11/03 03:45:14;;;;;;;19.05;9.00;;;17.80;76.40;;;;;;6150541;23;20421;-79
2022/11/03 03:47:43;;;;;;;18.87;9.10;;;17.70;77.00;;;;;;6152510;23;20255;-79
2022/11/03 03:50:12;;;;;;;17.87;8.43;;;17.70;77.20;;;;;;6153638;23;20239;-79
2022/11/03 03:52:41;;;;;;;19.67;8.77;;;17.60;76.90;;;;;;6153105;23;20501;-79
2022/11/03 03:55:18;;;;;;;16.37;8.43;;;17.60;77.10;;;;;;6153631;23;20177;-79
2022/11/03 03:57:48;;;;;;;19.80;8.83;;;17.60;77.00;;;;;;6151823;23;20168;-79
2022/11/03 04:00:18;;;;;;;23.07;8.50;;;17.60;76.90;;;;;;6152399;23;20669;-79
2022/11/03 04:02:46;;;;;;;17.67;8.70;;;17.60;76.70;;;;;;6149010;23;20530;-79
2022/11/03 04:05:15;;;;;;;18.70;7.93;;;17.60;76.80;;;;;;6152785;23;20180;-79
2022/11/03 04:07:50;;;;;;;18.77;8.33;;;17.60;76.80;;;;;;6153019;23;20173;-80
2022/11/03 04:10:21;;;;;;;17.57;7.67;;;17.50;76.70;;;;;;6154852;23;20168;-79
2022/11/03 04:23:59;;;;;;;16.60;7.97;;;17.40;77.00;;;;;;6151423;23;20699;-80
2022/11/03 04:26:28;;;;;;;16.27;8.87;;;17.40;77.00;;;;;;6146892;23;20169;-79
2022/11/03 04:28:59;;;;;;;17.90;8.17;;;17.40;77.20;;;;;;6150833;23;20200;-79
2022/11/03 04:31:30;;;;;;;17.87;9.13;;;17.40;77.30;;;;;;6150791;23;20168;-79
2022/11/03 04:33:59;;;;;;;18.73;9.57;;;17.30;77.30;;;;;;6149058;23;20161;-79
2022/11/03 04:36:27;;;;;;;18.87;9.03;;;17.30;77.40;;;;;;6150439;23;20168;-80
2022/11/03 04:38:56;;;;;;;19.47;7.93;;;17.30;77.40;;;;;;6151515;23;20183;-79
2022/11/03 04:41:28;;;;;;;16.67;9.07;;;17.30;77.40;;;;;;6153308;23;20204;-79
2022/11/03 04:43:58;;;;;;;16.40;8.57;;;17.30;77.40;;;;;;6153225;23;20243;-80
2022/11/03 04:46:28;;;;;;;25.57;9.40;;;17.20;77.30;;;;;;6150382;23;20172;-79
2022/11/03 04:48:59;;;;;;;22.30;8.73;;;17.20;77.50;;;;;;6147790;23;20165;-80
2022/11/03 04:51:33;;;;;;;18.27;8.47;;;17.20;77.50;;;;;;6150011;23;20206;-79
2022/11/03 04:54:04;;;;;;;17.67;9.37;;;17.20;77.50;;;;;;6153204;23;20172;-80
2022/11/03 04:56:33;;;;;;;19.20;9.93;;;17.20;77.50;;;;;;6150746;23;20168;-79
2022/11/03 04:59:03;;;;;;;20.83;9.90;;;17.20;77.50;;;;;;6152798;23;20594;-79
2022/11/03 05:01:32;;;;;;;25.53;10.00;;;17.20;77.60;;;;;;6154281;23;20198;-79
2022/11/03 05:04:00;;;;;;;18.37;9.20;;;17.20;77.60;;;;;;6153305;23;20172;-79
2022/11/03 05:06:30;;;;;;;22.30;10.00;;;17.20;77.60;;;;;;6153480;23;20180;-81
2022/11/03 05:09:00;;;;;;;21.70;9.10;;;17.20;77.60;;;;;;6152854;23;20227;-79
2022/11/03 05:11:32;;;;;;;25.23;9.33;;;17.10;77.70;;;;;;6153374;23;20173;-79
2022/11/03 05:14:04;;;;;;;24.10;9.40;;;17.10;77.80;;;;;;6151597;23;20161;-80
2022/11/03 05:16:33;;;;;;;18.83;9.07;;;17.10;77.80;;;;;;6148176;23;20184;-79
2022/11/03 05:19:02;;;;;;;17.57;8.30;;;17.20;77.90;;;;;;6150845;23;20187;-79
2022/11/03 05:21:30;;;;;;;16.43;8.60;;;17.20;77.90;;;;;;6153925;23;20249;-79
2022/11/03 05:24:03;;;;;;;23.73;10.03;;;17.20;77.80;;;;;;6151832;23;20653;-79
2022/11/03 05:26:34;;;;;;;26.97;8.97;;;17.30;77.80;;;;;;6152344;23;20164;-79
2022/11/03 05:29:11;;;;;;;24.90;9.37;;;17.20;77.80;;;;;;6149078;23;20248;-80
2022/11/03 05:31:41;;;;;;;21.07;8.87;;;17.30;78.80;;;;;;6150175;23;20216;-79
2022/11/03 05:34:30;;;;;;;26.43;10.57;;;17.20;77.90;;;;;;6150569;23;20165;-79
2022/11/03 05:37:00;;;;;;;24.70;10.13;;;17.20;78.00;;;;;;6149208;23;20188;-79
2022/11/03 05:39:31;;;;;;;20.83;10.17;;;17.20;78.00;;;;;;6151914;23;20168;-80
2022/11/03 05:42:00;;;;;;;24.43;9.90;;;17.20;78.00;;;;;;6152796;23;20184;-80
2022/11/03 05:44:35;;;;;;;20.73;10.20;;;17.20;78.00;;;;;;6152833;23;20472;-79
2022/11/03 05:47:09;;;;;;;31.57;10.73;;;17.20;78.00;;;;;;6153990;23;20202;-80
2022/11/03 05:49:37;;;;;;;21.97;9.90;;;17.30;78.00;;;;;;6154527;23;20160;-78
2022/11/03 05:52:12;;;;;;;21.40;9.73;;;17.30;77.90;;;;;;6152921;23;20173;-78
2022/11/03 05:54:40;;;;;;;26.10;10.77;;;17.30;77.90;;;;;;6153388;23;20176;-79
2022/11/03 05:57:11;;;;;;;22.43;9.57;;;17.30;77.90;;;;;;6151463;23;20173;-79
2022/11/03 05:59:44;;;;;;;23.00;9.77;;;17.30;78.00;;;;;;6152248;23;20180;-79
2022/11/03 06:02:32;;;;;;;20.80;10.03;;;17.40;78.00;;;;;;6148804;23;20199;-78
2022/11/03 06:05:00;;;;;;;24.03;9.37;;;17.30;78.00;;;;;;6152760;23;20165;-78
2022/11/03 06:07:31;;;;;;;22.07;9.77;;;17.30;78.20;;;;;;6153902;23;20176;-78
2022/11/03 06:09:59;;;;;;;21.40;9.10;;;17.40;78.30;;;;;;6154429;23;20492;-78
2022/11/03 06:12:30;;;;;;;20.93;9.53;;;17.40;78.30;;;;;;6152850;23;20732;-79
2022/11/03 06:15:00;;;;;;;28.43;10.63;;;17.40;78.20;;;;;;6154873;23;20196;-79
2022/11/03 06:17:29;;;;;;;21.77;9.83;;;17.40;78.30;;;;;;6153377;23;20538;-78
2022/11/03 06:19:59;;;;;;;21.93;9.60;;;17.40;78.30;;;;;;6154111;23;20173;-79
2022/11/03 06:22:31;;;;;;;20.17;9.47;;;17.40;78.30;;;;;;6153079;23;20185;-79
2022/11/03 06:25:01;;;;;;;23.03;9.97;;;17.40;78.20;;;;;;6152503;23;20161;-79
2022/11/03 06:27:32;;;;;;;19.63;10.40;;;17.40;78.20;;;;;;6152509;23;20200;-80
2022/11/03 06:30:13;;;;;;;25.63;10.40;;;17.50;78.20;;;;;;6145148;23;20219;-79
2022/11/03 06:32:41;;;;;;;23.07;9.93;;;17.40;78.20;;;;;;6149979;23;20160;-79
2022/11/03 06:35:12;;;;;;;21.67;10.57;;;17.40;78.20;;;;;;6151927;23;20172;-76
2022/11/03 06:37:41;;;;;;;23.13;9.77;;;17.40;78.30;;;;;;6153840;23;20164;-78
2022/11/03 06:40:33;;;;;;;18.73;10.00;;;17.50;78.50;;;;;;6151837;23;20219;-78
2022/11/03 06:43:14;;;;;;;21.93;10.13;;;17.50;78.60;;;;;;6152671;23;20192;-79
2022/11/03 06:45:50;;;;;;;32.00;11.97;;;17.40;78.50;;;;;;6152686;23;20160;-80
2022/11/03 06:48:27;;;;;;;28.98;11.88;;;17.40;78.60;;;;;;6152333;23;20446;-77
2022/11/03 06:50:58;;;;;;;21.87;11.00;;;17.50;78.70;;;;;;6152671;23;20168;-78
2022/11/03 06:53:29;;;;;;;26.93;11.07;;;17.50;78.80;;;;;;6150373;23;20168;-79
2022/11/03 06:55:58;;;;;;;35.00;13.97;;;17.60;78.90;;;;;;6150707;23;20223;-79
2022/11/03 06:58:30;;;;;;;24.30;13.87;;;17.60;79.00;;;;;;6148895;23;20232;-78
2022/11/03 07:01:21;;;;;;;25.07;11.57;;;17.60;79.10;;;;;;6150118;23;20235;-78
2022/11/03 07:03:52;;;;;;;25.47;12.33;;;17.60;79.10;;;;;;6152187;23;20157;-78
2022/11/03 07:06:23;;;;;;;26.53;13.03;;;17.60;79.00;;;;;;6152531;23;20492;-78
2022/11/03 07:08:54;;;;;;;24.40;12.40;;;17.70;79.20;;;;;;6153149;23;20160;-77
2022/11/03 07:11:24;;;;;;;24.77;11.37;;;17.70;79.10;;;;;;6151579;23;20203;-78
2022/11/03 07:13:53;;;;;;;23.00;11.70;;;17.80;79.20;;;;;;6152379;23;20646;-79
2022/11/03 07:16:30;;;;;;;22.60;11.07;;;17.80;79.10;;;;;;6155833;23;20163;-78
2022/11/03 07:19:01;;;;;;;24.70;12.00;;;17.80;79.10;;;;;;6154865;23;20157;-79
2022/11/03 07:21:36;;;;;;;26.87;11.40;;;17.90;79.10;;;;;;6153722;23;20160;-79
2022/11/03 07:24:15;;;;;;;23.27;10.77;;;17.90;79.00;;;;;;6155282;23;20586;-78
2022/11/03 07:26:43;;;;;;;22.13;10.77;;;18.00;79.20;;;;;;6153870;23;20165;-79
2022/11/03 07:29:18;;;;;;;29.47;12.20;;;18.00;79.10;;;;;;6153740;23;20197;-78
2022/11/03 07:31:49;;;;;;;23.60;11.00;;;18.10;79.00;;;;;;6153722;23;20601;-78
2022/11/03 07:34:23;;;;;;;27.90;11.83;;;18.10;78.90;;;;;;6155208;23;20161;-79
2022/11/03 07:36:53;;;;;;;26.03;11.23;;;18.20;78.80;;;;;;6155395;23;20222;-78
2022/11/03 07:39:23;;;;;;;25.83;10.73;;;18.30;78.80;;;;;;6154699;23;20235;-79
2022/11/03 07:41:52;;;;;;;23.50;11.30;;;18.30;78.80;;;;;;6153715;23;20197;-80
2022/11/03 07:44:21;;;;;;;23.60;10.87;;;18.30;78.70;;;;;;6154327;23;20172;-79
2022/11/03 07:46:51;;;;;;;22.27;11.50;;;18.40;78.70;;;;;;6154640;23;20684;-79
2022/11/03 07:49:27;;;;;;;20.23;9.80;;;18.40;78.60;;;;;;6153214;23;20751;-77
2022/11/03 07:51:57;;;;;;;21.13;11.53;;;18.50;78.50;;;;;;6153762;23;20168;-79
2022/11/03 07:54:29;;;;;;;21.17;10.40;;;18.50;78.20;;;;;;6156067;23;20478;-78
2022/11/03 07:57:00;;;;;;;21.63;10.27;;;18.60;78.10;;;;;;6155698;23;20537;-79
2022/11/03 07:59:32;;;;;;;20.83;9.70;;;18.60;78.00;;;;;;6155964;23;20192;-78
2022/11/03 08:02:11;;;;;;;24.97;11.50;;;18.70;78.00;;;;;;6153605;23;20692;-79
2022/11/03 08:04:40;;;;;;;28.13;10.97;;;18.80;77.60;;;;;;6153761;23;20371;-78
2022/11/03 08:07:08;;;;;;;20.73;11.00;;;18.80;77.50;;;;;;6155931;23;20515;-80
2022/11/03 08:09:36;;;;;;;19.53;9.90;;;18.90;77.40;;;;;;6156169;23;20239;-77
2022/11/03 08:12:05;;;;;;;19.10;10.13;;;18.90;77.20;;;;;;6154085;23;20185;-77
2022/11/03 08:14:34;;;;;;;22.37;10.50;;;19.00;76.80;;;;;;6154918;23;20176;-77
2022/11/03 08:17:04;;;;;;;19.93;10.43;;;19.00;76.60;;;;;;6154783;23;20172;-79
2022/11/03 08:19:32;;;;;;;19.37;11.03;;;19.00;76.40;;;;;;6155378;23;20226;-79
2022/11/03 08:22:00;;;;;;;16.17;9.50;;;19.00;76.30;;;;;;6155258;23;20172;-80
2022/11/03 08:24:29;;;;;;;23.50;11.23;;;19.00;76.10;;;;;;6155058;23;20543;-79
2022/11/03 08:26:57;;;;;;;20.90;10.67;;;19.10;76.10;;;;;;6155554;23;20223;-78
2022/11/03 08:29:26;;;;;;;27.57;11.53;;;19.10;76.10;;;;;;6156115;23;20176;-78
2022/11/03 08:31:54;;;;;;;19.47;10.70;;;19.10;76.10;;;;;;6154279;23;20513;-79
2022/11/03 08:34:24;;;;;;;19.17;10.23;;;19.10;76.10;;;;;;6153849;23;20173;-79
2022/11/03 08:36:52;;;;;;;20.27;10.17;;;19.20;76.10;;;;;;6153455;23;20227;-78
2022/11/03 08:39:20;;;;;;;20.87;10.33;;;19.20;76.00;;;;;;6155222;23;20172;-78
2022/11/03 08:41:49;;;;;;;21.40;10.40;;;19.30;75.80;;;;;;6154463;23;20172;-78
2022/11/03 08:44:17;;;;;;;24.37;10.03;;;19.30;75.70;;;;;;6152476;23;20665;-78
2022/11/03 08:46:45;;;;;;;24.00;11.37;;;19.30;75.20;;;;;;6151846;23;20168;-80
2022/11/03 08:49:13;;;;;;;23.33;10.13;;;19.40;75.20;;;;;;6154044;23;20476;-79
2022/11/03 08:51:43;;;;;;;23.13;10.37;;;19.40;75.10;;;;;;6154821;23;20173;-79
2022/11/03 08:54:12;;;;;;;22.07;9.73;;;19.50;74.60;;;;;;6153065;23;20297;-80
2022/11/03 08:56:40;;;;;;;23.37;9.33;;;19.50;74.20;;;;;;6153466;23;20176;-80
2022/11/03 08:59:09;;;;;;;40.27;10.97;;;19.60;74.20;;;;;;6155313;23;20179;-80
2022/11/03 09:01:37;;;;;;;21.40;9.37;;;19.60;74.20;;;;;;6154721;23;20177;-80
2022/11/03 09:04:05;;;;;;;22.50;10.80;;;19.70;74.30;;;;;;6151882;23;20275;-80
2022/11/03 09:06:34;;;;;;;18.83;9.37;;;19.70;74.00;;;;;;6153247;23;20232;-89
2022/11/03 09:09:03;;;;;;;15.10;8.33;;;19.70;73.60;;;;;;6155089;23;20173;-79
2022/11/03 09:11:52;;;;;;;17.37;8.50;;;19.80;73.20;;;;;;6152322;23;20207;-79
2022/11/03 09:14:20;;;;;;;31.40;9.88;;;19.90;72.90;;;;;;6154309;23;20201;-79
2022/11/03 09:16:48;;;;;;;21.58;9.32;;;19.90;72.80;;;;;;6153481;23;20204;-78
2022/11/03 09:19:17;;;;;;;13.90;7.60;;;19.90;72.50;;;;;;6152445;23;20558;-80
2022/11/03 09:21:45;;;;;;;16.77;8.60;;;20.00;72.20;;;;;;6151166;23;20646;-79
2022/11/03 09:24:15;;;;;;;16.43;8.43;;;20.10;72.30;;;;;;6153480;23;20196;-80
2022/11/03 09:26:43;;;;;;;20.88;9.30;;;20.10;71.80;;;;;;6152473;23;20650;-80
2022/11/03 09:29:11;;;;;;;15.40;8.18;;;20.10;71.60;;;;;;6152606;23;20196;-80
2022/11/03 09:31:40;;;;;;;25.05;9.93;;;20.20;71.30;;;;;;6152674;23;20514;-79
2022/11/03 09:34:08;;;;;;;21.05;9.35;;;20.20;71.40;;;;;;6154612;23;20542;-82
2022/11/03 09:36:37;;;;;;;18.83;9.52;;;20.30;71.20;;;;;;6152450;23;20556;-80
2022/11/03 09:39:05;;;;;;;19.33;9.48;;;20.40;71.20;;;;;;6150132;23;20271;-79
2022/11/03 09:41:35;;;;;;;19.70;8.63;;;20.40;71.10;;;;;;6153507;23;20251;-80
2022/11/03 09:44:23;;;;;;;15.68;8.75;;;20.40;70.50;;;;;;6151795;23;20704;-80
2022/11/03 09:46:52;;;;;;;17.08;8.65;;;20.40;70.50;;;;;;6153723;23;20466;-81
2022/11/03 09:49:26;;;;;;;17.45;9.35;;;20.50;70.50;;;;;;6151882;23;20598;-81
2022/11/03 09:51:55;;;;;;;19.48;9.00;;;20.40;70.30;;;;;;6152569;23;20219;-80
2022/11/03 09:54:25;;;;;;;20.17;9.05;;;20.50;70.50;;;;;;6154263;23;20549;-81
2022/11/03 09:56:58;;;;;;;22.55;9.40;;;20.50;70.20;;;;;;6152897;23;20160;-80
2022/11/03 09:59:26;;;;;;;20.88;8.98;;;20.60;70.10;;;;;;6153315;23;20165;-80
2022/11/03 10:01:54;;;;;;;16.08;7.63;;;20.60;71.00;;;;;;6151392;23;20235;-79
2022/11/03 10:04:27;;;;;;;13.45;6.80;;;20.50;69.30;;;;;;6150274;23;20692;-80
2022/11/03 10:06:56;;;;;;;13.93;7.05;;;20.60;69.10;;;;;;6152915;23;20530;-81
2022/11/03 10:09:27;;;;;;;12.68;7.32;;;20.60;69.40;;;;;;6154731;23;20176;-80
2022/11/03 10:11:57;;;;;;;16.08;7.40;;;20.70;69.30;;;;;;6153760;23;20241;-79
2022/11/03 10:14:25;;;;;;;19.05;7.78;;;20.70;69.50;;;;;;6152528;23;20485;-81
2022/11/03 10:16:58;;;;;;;14.23;7.15;;;20.80;69.10;;;;;;6152975;23;20227;-81
2022/11/03 10:19:27;;;;;;;14.90;7.07;;;20.80;69.00;;;;;;6153626;23;20183;-81
2022/11/03 10:21:56;;;;;;;16.27;7.45;;;20.80;69.10;;;;;;6153824;23;20618;-80
2022/11/03 10:24:25;;;;;;;12.88;6.75;;;20.90;68.90;;;;;;6152522;23;20278;-80
2022/11/03 10:26:56;;;;;;;14.93;6.65;;;20.90;68.70;;;;;;6154666;23;20175;-78
2022/11/03 10:29:25;;;;;;;11.55;6.38;;;21.00;68.60;;;;;;6124804;23;20157;-80
2022/11/03 10:31:55;;;;;;;13.75;7.35;;;21.00;68.00;;;;;;6124623;23;20235;-78
2022/11/03 10:34:33;;;;;;;19.30;6.53;;;21.00;67.20;;;;;;6122213;23;20170;-79
2022/11/03 10:37:19;;;;;;;15.10;6.72;;;21.00;67.00;;;;;;6124257;23;20161;-78
2022/11/03 10:39:48;;;;;;;13.43;6.80;;;21.00;66.60;;;;;;6123215;23;20172;-78
2022/11/03 10:42:20;;;;;;;12.80;7.03;;;21.00;66.50;;;;;;6122463;23;20554;-79
2022/11/03 10:44:51;;;;;;;14.65;7.10;;;21.10;66.90;;;;;;6118986;23;20500;-80
2022/11/03 10:47:32;;;;;;;14.40;6.97;;;21.10;66.00;;;;;;6122767;23;20161;-80
2022/11/03 10:50:18;;;;;;;19.65;6.75;;;21.00;66.00;;;;;;6125913;23;20161;-80
2022/11/03 10:52:47;;;;;;;11.82;6.25;;;21.10;66.40;;;;;;6125379;23;20192;-78
2022/11/03 10:55:15;;;;;;;12.63;6.78;;;21.10;66.00;;;;;;6122114;23;20173;-79
2022/11/03 10:57:54;;;;;;;13.60;6.57;;;21.10;66.00;;;;;;6124308;23;20610;-79
2022/11/03 11:00:23;;;;;;;12.82;6.53;;;21.10;66.00;;;;;;6125635;23;20158;-78
2022/11/03 11:02:55;;;;;;;15.52;6.30;;;21.10;66.70;;;;;;6124361;23;20173;-78
2022/11/03 11:05:24;;;;;;;12.05;5.78;;;21.20;66.00;;;;;;6124610;23;20196;-77
2022/11/03 11:07:54;;;;;;;14.18;6.57;;;21.20;65.70;;;;;;6125333;23;20697;-78
2022/11/03 11:10:24;;;;;;;12.80;5.85;;;21.20;65.60;;;;;;6123715;23;20169;-79
2022/11/03 11:13:29;;;;;;;16.80;6.30;;;21.20;65.70;;;;;;6124844;23;20173;-80
2022/11/03 11:15:59;;;;;;;11.55;6.20;;;21.20;65.40;;;;;;6122844;23;20252;-79
2022/11/03 11:19:11;;;;;;;12.73;7.03;;;21.20;65.10;;;;;;6125188;23;20500;-79
2022/11/03 11:22:00;;;;;;;12.20;6.10;;;21.20;65.40;;;;;;6124041;23;20209;-79
2022/11/03 11:24:56;;;;;;;11.00;5.85;;;21.30;65.50;;;;;;6125000;23;20193;-80
2022/11/03 11:27:57;;;;;;;13.25;7.32;;;21.30;65.20;;;;;;6122455;23;20728;-83
2022/11/03 11:31:02;;;;;;;16.25;6.35;;;21.30;64.90;;;;;;6154054;23;20191;-80
2022/11/03 11:33:34;;;;;;;12.85;6.53;;;21.30;64.80;;;;;;6154205;23;20515;-77
2022/11/03 11:36:20;;;;;;;9.90;5.25;;;21.40;64.60;;;;;;6154393;23;20161;-78
2022/11/03 11:39:10;;;;;;;11.85;5.40;;;21.40;64.30;;;;;;6152125;23;20243;-78
2022/11/03 11:42:10;;;;;;;9.48;5.28;;;21.40;64.70;;;;;;6155313;23;20230;-79
2022/11/03 11:45:03;;;;;;;12.68;5.43;;;21.40;63.30;;;;;;6155499;23;20200;-80
2022/11/03 11:47:34;;;;;;;8.40;5.03;;;21.50;63.70;;;;;;6154392;23;20160;-80
2022/11/03 11:50:23;;;;;;;11.02;4.75;;;21.50;63.50;;;;;;6153793;23;20677;-79
2022/11/03 11:52:57;;;;;;;16.35;5.85;;;21.50;62.60;;;;;;6153823;23;20161;-79
2022/11/03 11:55:35;;;;;;;10.05;4.60;;;21.50;62.20;;;;;;6154791;23;20165;-79
2022/11/03 11:58:12;;;;;;;8.23;4.35;;;21.60;62.10;;;;;;6154228;23;20287;-78
2022/11/03 12:00:51;;;;;;;7.88;4.55;;;21.60;61.80;;;;;;6155584;23;20539;-77
2022/11/03 12:03:28;;;;;;;8.77;4.55;;;21.60;61.80;;;;;;6153107;23;20161;-81
2022/11/03 12:05:58;;;;;;;11.20;4.88;;;21.70;61.80;;;;;;6155563;23;20211;-79
2022/11/03 12:08:29;;;;;;;8.98;4.82;;;21.70;61.30;;;;;;6152896;23;20176;-77
2022/11/03 12:11:00;;;;;;;11.90;4.78;;;21.70;61.10;;;;;;6152534;23;20603;-77
2022/11/03 12:13:50;;;;;;;7.88;4.53;;;21.70;60.80;;;;;;6153695;23;20256;-77
2022/11/03 12:16:35;;;;;;;8.38;4.10;;;21.80;60.00;;;;;;6154503;23;20165;-76
2022/11/03 12:19:39;;;;;;;7.25;4.20;;;21.80;59.50;;;;;;6142316;23;20549;-75
2022/11/03 12:22:11;;;;;;;10.52;5.10;;;21.80;59.70;;;;;;6149745;23;20176;-75
2022/11/03 12:24:50;;;;;;;10.55;4.38;;;21.80;60.00;;;;;;6150485;23;20238;-77
2022/11/03 12:27:40;;;;;;;9.57;4.22;;;21.90;60.30;;;;;;6152452;23;20200;-75
2022/11/03 12:30:17;;;;;;;9.93;4.65;;;21.90;60.30;;;;;;6149880;23;20177;-76
2022/11/03 12:32:46;;;;;;;11.43;4.40;;;22.00;60.10;;;;;;6152204;23;20471;-77
2022/11/03 12:35:53;;;;;;;10.48;4.13;;;22.00;60.20;;;;;;6152196;23;20653;-77
2022/11/03 12:38:23;;;;;;;10.05;4.50;;;22.00;59.90;;;;;;6122141;23;21076;-75
2022/11/03 12:40:52;;;;;;;10.00;4.72;;;22.00;60.20;;;;;;6120323;23;20173;-75
2022/11/03 12:43:20;;;;;;;9.93;4.47;;;22.00;59.60;;;;;;6122162;23;20180;-75
2022/11/03 12:45:49;;;;;;;12.32;5.38;;;22.00;59.50;;;;;;6119683;23;20526;-75
2022/11/03 12:48:18;;;;;;;11.80;4.68;;;22.10;59.70;;;;;;6119314;23;20515;-75
2022/11/03 12:50:46;;;;;;;9.85;5.00;;;22.10;59.70;;;;;;6119910;23;20185;-79
2022/11/03 12:53:14;;;;;;;6.57;3.92;;;22.10;60.00;;;;;;6121926;23;20177;-75
2022/11/03 12:55:44;;;;;;;9.95;4.30;;;22.20;60.30;;;;;;6121014;23;20173;-76
2022/11/03 12:58:12;;;;;;;8.35;4.43;;;22.30;60.50;;;;;;6120295;23;20547;-75
2022/11/03 13:00:41;;;;;;;12.45;4.55;;;22.40;60.10;;;;;;6121751;23;20173;-75
2022/11/03 13:03:16;;;;;;;8.68;4.85;;;22.40;59.50;;;;;;6122132;23;20675;-75
2022/11/03 13:05:48;;;;;;;12.20;4.60;;;22.40;58.90;;;;;;6121136;23;20201;-75
2022/11/03 13:08:16;;;;;;;8.93;4.28;;;22.40;59.10;;;;;;6122487;23;20161;-75
2022/11/03 13:10:46;;;;;;;16.88;5.13;;;22.50;58.90;;;;;;6121125;23;20545;-76
2022/11/03 13:13:15;;;;;;;10.30;4.22;;;22.50;58.80;;;;;;6122809;23;20307;-76
2022/11/03 13:15:43;;;;;;;11.48;4.63;;;22.80;58.40;;;;;;6121686;23;20185;-76
2022/11/03 13:18:11;;;;;;;8.88;4.82;;;23.20;58.00;;;;;;6122785;23;20282;-76
2022/11/03 13:20:43;;;;;;;8.25;4.43;;;23.30;58.00;;;;;;6121377;23;20320;-76